VDSR

Details ICAO VDSR (REP)
Name Siem Reap
Region Cambodia
Timezone Asia/Phnom_Penh (UTC+7.0)
Plans Departing 54
Arriving 68
Stats Elevation 60 ft / 18 m (AMSL)
Location 13.410667° 103.812832°
Runways 1
Magnetic Variation 0.618° W
Sunrise 2017-12-10 23:18:49 UTC / 2017-12-11 06:18:49 Local
Sunset 2017-12-11 10:39:51 UTC / 2017-12-11 17:39:51 Local
Advertisement - Login to hide

Runways

ID Width Length Bearing (true) Bearing (mag) Surface Threshold Offset Overrun Length
05 148 ft / 45 m 8,384 ft / 2,555 m 47.81° 48.43° Concrete 450 ft / 137 m 0 ft / 0 m
23 148 ft / 45 m 8,384 ft / 2,555 m 227.82° 228.44° Concrete 450 ft / 137 m 0 ft / 0 m

Map

Weather


0- 5 10 15 20 25 30 35+ Temperature / ° C

Clouds and Precipitation
Forecast for 2017-12-11 12:00 UTC. Updated 2 hours ago

Ground ~20,000 ft ~40,000 ft Winds

METAR

VDSR 111300Z 00000KT 9000 FEW017 26/20 Q1012

TAF

Not found

Frequencies

Recorded 129.95 MHz ATIS
Approach 124.30 MHz APP
Tower 118.50 MHz TWR
Warning: Do not use this data for real-world aviation or navigation. No guarantee of current accuracy is given.